createdAt,value
2017-05-18T00:00:07.278Z,20.97
2017-05-18T00:00:48.399Z,20.82
2017-05-18T00:01:28.910Z,20.82
2017-05-18T00:02:09.405Z,20.79
2017-05-18T00:02:49.897Z,20.64
2017-05-18T00:03:30.401Z,20.72
2017-05-18T00:04:10.897Z,20.66
2017-05-18T00:04:51.404Z,20.54
2017-05-18T00:05:31.902Z,20.54
2017-05-18T00:06:12.390Z,20.52
2017-05-18T00:06:53.674Z,20.35
2017-05-18T00:07:35.114Z,20.36
2017-05-18T00:08:15.607Z,20.51
2017-05-18T00:08:57.006Z,20.62
2017-05-18T00:09:37.509Z,20.5
2017-05-18T00:10:18.058Z,20.42
2017-05-18T00:10:58.543Z,20.21
2017-05-18T00:11:39.032Z,20.17
2017-05-18T00:12:19.524Z,20.31
2017-05-18T00:13:00.013Z,20.21
2017-05-18T00:13:40.509Z,20.31
2017-05-18T00:14:20.977Z,20.21
2017-05-18T00:15:01.488Z,20.32
2017-05-18T00:15:41.987Z,20.31
2017-05-18T00:16:22.473Z,20.32
2017-05-18T00:17:02.973Z,20.38
2017-05-18T00:17:43.464Z,20.43
2017-05-18T00:18:23.947Z,20.43
2017-05-18T00:19:04.442Z,20.43
2017-05-18T00:19:44.936Z,20.42
2017-05-18T00:20:25.432Z,20.32
2017-05-18T00:21:06.512Z,20.32
2017-05-18T00:21:47.007Z,20.42
2017-05-18T00:22:27.523Z,20.52
2017-05-18T00:23:08.016Z,20.57
2017-05-18T00:23:48.502Z,20.59
2017-05-18T00:24:28.997Z,20.51
2017-05-18T00:25:09.488Z,20.61
2017-05-18T00:25:49.996Z,20.57
2017-05-18T00:26:31.286Z,20.47
2017-05-18T00:27:11.785Z,20.32
2017-05-18T00:27:52.285Z,20.26
2017-05-18T00:28:32.773Z,20.32
2017-05-18T00:29:13.262Z,20.5
2017-05-18T00:29:53.762Z,20.47
2017-05-18T00:30:34.246Z,20.39
2017-05-18T00:31:15.420Z,20.36
2017-05-18T00:31:55.914Z,20.31
2017-05-18T00:32:36.409Z,20.2
2017-05-18T00:33:16.893Z,20.29
2017-05-18T00:33:57.393Z,20.32
2017-05-18T00:34:37.892Z,20.32
2017-05-18T00:35:18.380Z,20.17
2017-05-18T00:35:59.632Z,20.32
2017-05-18T00:36:40.114Z,20.31
2017-05-18T00:37:20.605Z,20.32
2017-05-18T00:38:01.696Z,20.31
2017-05-18T00:38:42.202Z,20.33
2017-05-18T00:39:22.697Z,20.29
2017-05-18T00:40:03.193Z,20.42
2017-05-18T00:40:44.411Z,20.41
2017-05-18T00:41:24.909Z,20.41
2017-05-18T00:42:05.405Z,20.33
2017-05-18T00:42:45.955Z,20.32
2017-05-18T00:43:26.415Z,20.16
2017-05-18T00:44:07.518Z,20.13
2017-05-18T00:44:48.001Z,20.2
2017-05-18T00:45:28.499Z,20.14
2017-05-18T00:46:08.985Z,20.17
2017-05-18T00:46:49.480Z,20.18
2017-05-18T00:47:29.976Z,20.21
2017-05-18T00:48:11.121Z,20.21
2017-05-18T00:48:51.600Z,20.21
2017-05-18T00:49:32.171Z,20.33
2017-05-18T00:50:12.664Z,20.42
2017-05-18T00:50:53.805Z,20.39
2017-05-18T00:51:35.114Z,20.48
2017-05-18T00:52:15.602Z,20.43
2017-05-18T00:52:56.094Z,20.39
2017-05-18T00:53:36.585Z,20.39
2017-05-18T00:54:17.710Z,20.41
2017-05-18T00:54:58.215Z,20.35
2017-05-18T00:55:38.714Z,20.32
2017-05-18T00:56:19.216Z,20.29
2017-05-18T00:56:59.717Z,20.32
2017-05-18T00:57:40.191Z,20.31
2017-05-18T00:58:21.437Z,20.33
2017-05-18T00:59:01.928Z,20.26
2017-05-18T00:59:42.425Z,20.21
2017-05-18T01:00:22.920Z,20.24
2017-05-18T01:01:04.698Z,20.23
2017-05-18T01:01:45.195Z,20.28
2017-05-18T01:02:25.689Z,20.11
2017-05-18T01:03:06.177Z,20.16
2017-05-18T01:03:46.679Z,20.14
2017-05-18T01:04:27.932Z,20.13
2017-05-18T01:05:08.466Z,20.11
2017-05-18T01:05:49.002Z,20.13
2017-05-18T01:06:29.488Z,20.17
2017-05-18T01:07:09.978Z,20.13
2017-05-18T01:07:50.487Z,20.14
2017-05-18T01:08:30.998Z,20.16
2017-05-18T01:09:11.513Z,20.26
2017-05-18T01:09:51.966Z,20.18
2017-05-18T01:10:33.409Z,20.17
2017-05-18T01:11:13.919Z,20.33
2017-05-18T01:11:55.032Z,20.26
2017-05-18T01:12:35.546Z,20.26
2017-05-18T01:13:16.034Z,20.23
2017-05-18T01:13:56.529Z,20.29
2017-05-18T01:14:37.012Z,20.18
2017-05-18T01:15:18.299Z,20.21
2017-05-18T01:15:59.535Z,20.28
2017-05-18T01:16:40.027Z,20.24
2017-05-18T01:17:20.544Z,20.16
2017-05-18T01:18:01.023Z,20.16
2017-05-18T01:18:41.531Z,20.2
2017-05-18T01:19:22.019Z,20.18
2017-05-18T01:20:02.517Z,20.21
2017-05-18T01:20:43.006Z,20.28
2017-05-18T01:21:23.495Z,20.24
2017-05-18T01:22:03.989Z,20.35
2017-05-18T01:22:44.483Z,20.28
2017-05-18T01:23:24.978Z,20.54
2017-05-18T01:24:05.472Z,20.47
2017-05-18T01:24:45.963Z,20.5
2017-05-18T01:25:26.447Z,20.47
2017-05-18T01:26:06.945Z,20.57
2017-05-18T01:26:47.439Z,20.59
2017-05-18T01:27:27.931Z,20.54
2017-05-18T01:28:08.421Z,20.61
2017-05-18T01:28:48.910Z,20.62
2017-05-18T01:29:29.401Z,20.7
2017-05-18T01:30:09.903Z,20.69
2017-05-18T01:30:50.421Z,20.67
2017-05-18T01:31:30.925Z,20.69
2017-05-18T01:32:13.137Z,20.67
2017-05-18T01:32:53.622Z,20.69
2017-05-18T01:33:34.271Z,20.76
2017-05-18T01:34:15.446Z,20.82
2017-05-18T01:34:56.807Z,20.84
2017-05-18T01:35:37.954Z,20.74
2017-05-18T01:36:18.459Z,20.79
2017-05-18T01:36:59.722Z,20.67
2017-05-18T01:37:40.228Z,20.7
2017-05-18T01:38:20.729Z,20.73
2017-05-18T01:39:01.214Z,20.61
2017-05-18T01:39:41.701Z,20.67
2017-05-18T01:40:22.201Z,20.64
2017-05-18T01:41:02.691Z,20.62
2017-05-18T01:41:43.803Z,20.61
2017-05-18T01:42:24.300Z,20.62
2017-05-18T01:43:04.788Z,20.62
2017-05-18T01:43:45.280Z,20.64
2017-05-18T01:44:25.774Z,20.61
2017-05-18T01:45:06.262Z,20.61
2017-05-18T01:45:46.762Z,20.61
2017-05-18T01:46:28.238Z,20.54
2017-05-18T01:47:08.737Z,20.54
2017-05-18T01:47:49.218Z,20.42
2017-05-18T01:48:29.716Z,20.61
2017-05-18T01:49:10.206Z,20.55
2017-05-18T01:49:50.700Z,20.55
2017-05-18T01:50:31.199Z,20.52
2017-05-18T01:51:11.693Z,20.43
2017-05-18T01:51:52.177Z,20.36
2017-05-18T01:52:34.982Z,20.35
2017-05-18T01:53:15.228Z,20.35
2017-05-18T01:53:55.710Z,20.35
2017-05-18T01:54:36.191Z,20.32
2017-05-18T01:55:17.642Z,20.41
2017-05-18T01:55:58.118Z,20.32
2017-05-18T01:56:39.230Z,20.32
2017-05-18T01:57:19.733Z,20.18
2017-05-18T01:58:00.282Z,20.28
2017-05-18T01:58:40.748Z,20.26
2017-05-18T01:59:21.247Z,20.28
2017-05-18T02:00:01.748Z,20.24
2017-05-18T02:00:42.237Z,20.11
2017-05-18T02:01:22.720Z,20.03
2017-05-18T02:02:03.236Z,19.98
2017-05-18T02:02:43.724Z,20.02
2017-05-18T02:03:24.201Z,19.96
2017-05-18T02:04:04.694Z,19.94
2017-05-18T02:04:45.208Z,20.01
2017-05-18T02:05:25.698Z,20.03
2017-05-18T02:06:06.203Z,20.06
2017-05-18T02:06:46.698Z,20.03
2017-05-18T02:07:27.243Z,20.01
2017-05-18T02:08:07.752Z,20.01
2017-05-18T02:08:48.242Z,19.8
2017-05-18T02:09:29.451Z,19.71
2017-05-18T02:10:09.944Z,19.59
2017-05-18T02:10:50.442Z,19.62
2017-05-18T02:11:30.927Z,19.69
2017-05-18T02:12:11.426Z,19.56
2017-05-18T02:12:51.912Z,19.5
2017-05-18T02:13:32.401Z,19.43
2017-05-18T02:14:12.901Z,19.33
2017-05-18T02:14:53.400Z,19.31
2017-05-18T02:15:33.880Z,19.29
2017-05-18T02:16:14.380Z,19.33
2017-05-18T02:16:54.864Z,19.36
2017-05-18T02:17:35.417Z,19.33
2017-05-18T02:18:15.871Z,19.23
2017-05-18T02:18:56.372Z,19.28
2017-05-18T02:19:36.875Z,19.32
2017-05-18T02:20:17.366Z,19.43
2017-05-18T02:20:57.857Z,19.47
2017-05-18T02:21:38.353Z,19.44
2017-05-18T02:22:18.845Z,19.46
2017-05-18T02:22:59.347Z,19.41
2017-05-18T02:23:39.879Z,19.39
2017-05-18T02:24:21.153Z,19.32
2017-05-18T02:25:01.649Z,19.36
2017-05-18T02:25:42.164Z,19.33
2017-05-18T02:26:23.564Z,19.33
2017-05-18T02:27:04.068Z,19.43
2017-05-18T02:27:44.559Z,19.41
2017-05-18T02:28:25.056Z,19.31
2017-05-18T02:29:05.544Z,19.23
2017-05-18T02:29:46.031Z,19.11
2017-05-18T02:31:43.659Z,19.23
2017-05-18T02:32:24.169Z,19.19
2017-05-18T02:33:04.664Z,19.18
2017-05-18T02:33:45.166Z,19.18
2017-05-18T02:34:25.653Z,19.18
2017-05-18T02:35:06.148Z,19.23
2017-05-18T02:35:47.366Z,19.21
2017-05-18T02:36:28.644Z,19.23
2017-05-18T02:37:09.125Z,19.11
2017-05-18T02:37:49.620Z,19.1
2017-05-18T02:38:30.131Z,18.95
2017-05-18T02:39:11.352Z,18.95
2017-05-18T02:39:52.642Z,18.95
2017-05-18T02:40:33.156Z,18.81
2017-05-18T02:41:14.640Z,18.82
2017-05-18T02:41:55.134Z,18.82
2017-05-18T02:42:36.354Z,18.85
2017-05-18T02:43:16.850Z,18.7
2017-05-18T02:43:57.290Z,18.73
2017-05-18T02:44:37.791Z,18.67
2017-05-18T02:46:15.138Z,18.69
2017-05-18T02:46:55.624Z,18.66
2017-05-18T02:47:36.111Z,18.65
2017-05-18T02:48:16.604Z,18.58
2017-05-18T02:48:57.100Z,18.5
2017-05-18T02:49:37.592Z,18.52
2017-05-18T02:50:18.095Z,18.45
2017-05-18T02:50:58.585Z,18.5
2017-05-18T02:51:39.085Z,18.51
2017-05-18T02:52:19.585Z,18.48
2017-05-18T02:53:00.694Z,18.52
2017-05-18T02:53:41.194Z,18.52
2017-05-18T02:54:21.683Z,18.35
2017-05-18T02:55:02.177Z,18.48
2017-05-18T02:55:42.671Z,18.47
2017-05-18T02:56:23.706Z,18.44
2017-05-18T02:57:04.196Z,18.48
2017-05-18T02:57:45.332Z,18.52
2017-05-18T02:58:26.611Z,18.5
2017-05-18T02:59:07.107Z,18.5
2017-05-18T02:59:47.605Z,18.55
2017-05-18T03:00:28.094Z,18.54
2017-05-18T03:01:08.606Z,18.54
2017-05-18T03:01:50.436Z,18.58
2017-05-18T03:03:49.164Z,18.69
2017-05-18T03:04:29.585Z,18.7
2017-05-18T03:05:10.071Z,18.75
2017-05-18T03:05:50.531Z,18.75
2017-05-18T03:06:31.012Z,18.76
2017-05-18T03:08:18.514Z,18.87
2017-05-18T03:08:59.023Z,18.78
2017-05-18T03:09:39.519Z,18.81
2017-05-18T03:10:20.016Z,18.78
2017-05-18T03:11:00.511Z,18.82
2017-05-18T03:11:41.975Z,18.75
2017-05-18T03:12:23.387Z,18.78
2017-05-18T03:13:03.866Z,18.8
2017-05-18T03:13:44.358Z,18.78
2017-05-18T03:14:24.849Z,18.75
2017-05-18T03:15:05.340Z,18.72
2017-05-18T03:15:45.827Z,18.76
2017-05-18T03:16:26.322Z,18.8
2017-05-18T03:17:06.814Z,18.76
2017-05-18T03:17:47.285Z,18.67
2017-05-18T03:18:27.776Z,18.63
2017-05-18T03:19:09.231Z,18.7
2017-05-18T03:19:49.728Z,18.58
2017-05-18T03:20:30.226Z,18.67
2017-05-18T03:21:11.392Z,18.73
2017-05-18T03:21:51.870Z,18.81
2017-05-18T03:22:33.176Z,18.73
2017-05-18T03:23:13.644Z,18.85
2017-05-18T03:23:54.129Z,18.84
2017-05-18T03:24:34.616Z,18.91
2017-05-18T03:25:15.115Z,18.91
2017-05-18T03:25:55.617Z,18.95
2017-05-18T03:26:36.095Z,18.85
2017-05-18T03:27:16.589Z,18.94
2017-05-18T03:27:57.099Z,18.98
2017-05-18T03:28:37.571Z,18.92
2017-05-18T03:29:18.067Z,18.95
2017-05-18T03:29:58.559Z,18.98
2017-05-18T03:30:39.098Z,18.99
2017-05-18T03:31:19.587Z,18.95
2017-05-18T03:32:01.059Z,18.98
2017-05-18T03:32:41.567Z,18.94
2017-05-18T03:33:22.076Z,18.94
2017-05-18T03:34:02.573Z,18.95
2017-05-18T03:34:43.067Z,18.9
2017-05-18T03:35:23.557Z,18.75
2017-05-18T03:36:04.041Z,18.67
2017-05-18T03:36:44.523Z,18.62
2017-05-18T03:37:25.009Z,18.62
2017-05-18T03:38:05.470Z,18.57
2017-05-18T03:38:45.957Z,18.5
2017-05-18T03:39:27.064Z,18.54
2017-05-18T03:40:07.576Z,18.63
2017-05-18T03:40:48.072Z,18.65
2017-05-18T03:41:28.573Z,18.62
2017-05-18T03:42:09.068Z,18.5
2017-05-18T03:42:49.558Z,18.44
2017-05-18T03:43:30.038Z,18.52
2017-05-18T03:44:10.536Z,18.55
2017-05-18T03:44:51.031Z,18.45
2017-05-18T03:45:31.520Z,18.44
2017-05-18T03:46:12.011Z,18.29
2017-05-18T03:46:53.399Z,18.05
2017-05-18T03:47:33.896Z,18.08
2017-05-18T03:48:16.299Z,18
2017-05-18T03:48:56.788Z,18.05
2017-05-18T03:49:37.279Z,17.84
2017-05-18T03:50:17.765Z,17.81
2017-05-18T03:50:58.266Z,17.74
2017-05-18T03:51:38.759Z,17.66
2017-05-18T03:52:20.067Z,17.64
2017-05-18T03:53:00.564Z,17.63
2017-05-18T03:53:42.304Z,17.7
2017-05-18T03:54:22.804Z,17.62
2017-05-18T03:55:03.306Z,17.62
2017-05-18T03:55:43.795Z,17.55
2017-05-18T03:56:24.281Z,17.56
2017-05-18T03:57:04.718Z,17.44
2017-05-18T03:57:45.180Z,17.38
2017-05-18T03:58:25.729Z,17.4
2017-05-18T03:59:06.215Z,17.33
2017-05-18T03:59:46.709Z,17.25
2017-05-18T04:00:27.200Z,17.33
2017-05-18T04:01:07.701Z,17.36
2017-05-18T04:01:48.197Z,17.41
2017-05-18T04:02:28.742Z,17.38
2017-05-18T04:03:09.178Z,17.43
2017-05-18T04:03:49.671Z,17.41
2017-05-18T04:04:30.138Z,17.49
2017-05-18T04:05:10.634Z,17.51
2017-05-18T04:05:52.056Z,17.44
2017-05-18T04:06:32.550Z,17.51
2017-05-18T04:07:13.810Z,17.54
2017-05-18T04:09:26.604Z,17.46
2017-05-18T04:10:07.055Z,17.51
2017-05-18T04:12:19.760Z,17.55
2017-05-18T04:13:00.257Z,17.49
2017-05-18T04:13:40.756Z,17.54
2017-05-18T04:14:21.252Z,17.68
2017-05-18T04:15:02.746Z,17.52
2017-05-18T04:15:43.230Z,17.52
2017-05-18T04:16:24.267Z,17.48
2017-05-18T04:17:04.768Z,17.52
2017-05-18T04:17:45.253Z,17.55
2017-05-18T04:18:25.745Z,17.68
2017-05-18T04:19:06.958Z,17.68
2017-05-18T04:19:48.239Z,17.71
2017-05-18T04:20:28.808Z,17.84
2017-05-18T04:21:11.160Z,17.96
2017-05-18T04:21:51.649Z,17.99
2017-05-18T04:22:32.146Z,18.15
2017-05-18T04:23:12.624Z,18.11
2017-05-18T04:23:53.111Z,18.27
2017-05-18T04:24:34.171Z,18.36
2017-05-18T04:25:14.665Z,18.42
2017-05-18T04:25:56.060Z,18.52
2017-05-18T04:26:36.567Z,18.58
2017-05-18T04:27:17.061Z,18.6
2017-05-18T04:27:57.564Z,18.72
2017-05-18T04:28:38.968Z,18.76
2017-05-18T04:29:19.463Z,18.82
2017-05-18T04:29:59.958Z,18.84
2017-05-18T04:30:40.450Z,18.9
2017-05-18T04:31:20.940Z,18.98
2017-05-18T04:32:01.437Z,19.07
2017-05-18T04:32:41.929Z,19.19
2017-05-18T04:33:22.428Z,19.25
2017-05-18T04:34:02.932Z,19.26
2017-05-18T04:34:43.439Z,19.31
2017-05-18T04:35:23.934Z,19.39
2017-05-18T04:36:04.412Z,19.31
2017-05-18T04:37:52.089Z,19.47
2017-05-18T04:38:32.341Z,19.46
2017-05-18T04:39:12.835Z,19.56
2017-05-18T04:39:53.304Z,19.5
2017-05-18T04:40:33.766Z,19.55
2017-05-18T04:42:21.222Z,19.69
2017-05-18T04:43:01.704Z,19.69
2017-05-18T04:43:42.196Z,19.78
2017-05-18T04:44:22.721Z,19.86
2017-05-18T04:45:03.222Z,19.83
2017-05-18T04:45:43.713Z,19.94
2017-05-18T04:46:24.204Z,20.05
2017-05-18T04:47:04.692Z,20.16
2017-05-18T04:47:45.183Z,20.26
2017-05-18T04:48:25.674Z,20.35
2017-05-18T04:49:06.184Z,20.31
2017-05-18T04:49:46.689Z,20.5
2017-05-18T04:50:27.181Z,20.52
2017-05-18T04:51:07.669Z,20.58
2017-05-18T04:51:48.172Z,20.61
2017-05-18T04:52:28.659Z,20.66
2017-05-18T04:53:09.150Z,20.58
2017-05-18T04:53:49.643Z,20.59
2017-05-18T04:54:30.158Z,20.67
2017-05-18T04:55:10.639Z,20.76
2017-05-18T04:55:51.136Z,20.94
2017-05-18T04:56:31.614Z,20.95
2017-05-18T04:57:12.121Z,20.82
2017-05-18T04:57:52.611Z,20.87
2017-05-18T04:58:33.141Z,20.89
2017-05-18T04:59:13.630Z,20.94
2017-05-18T04:59:54.125Z,20.98
2017-05-18T05:00:34.578Z,21.07
2017-05-18T05:01:15.078Z,21.22
2017-05-18T05:03:13.531Z,21.27
2017-05-18T05:03:54.020Z,21.16
2017-05-18T05:04:34.508Z,21.42
2017-05-18T05:05:14.996Z,21.42
2017-05-18T05:05:55.493Z,21.27
2017-05-18T05:06:35.997Z,21.42
2017-05-18T05:07:16.490Z,21.62
2017-05-18T05:07:56.990Z,21.49
2017-05-18T05:08:37.478Z,21.46
2017-05-18T05:09:17.972Z,21.58
2017-05-18T05:09:58.463Z,21.56
2017-05-18T05:10:38.954Z,21.64
2017-05-18T05:11:19.452Z,21.69
2017-05-18T05:11:59.945Z,21.75
2017-05-18T05:12:40.425Z,21.71
2017-05-18T05:13:20.928Z,21.91
2017-05-18T05:14:01.426Z,21.92
2017-05-18T05:14:41.915Z,21.98
2017-05-18T05:15:22.398Z,21.84
2017-05-18T05:16:02.899Z,21.69
2017-05-18T05:16:43.397Z,21.74
2017-05-18T05:17:23.877Z,21.74
2017-05-18T05:18:04.339Z,21.72
2017-05-18T05:18:44.787Z,21.79
2017-05-18T05:19:25.266Z,21.62
2017-05-18T05:20:05.768Z,21.53
2017-05-18T05:20:46.271Z,21.64
2017-05-18T05:21:26.759Z,21.5
2017-05-18T05:22:07.254Z,21.37
2017-05-18T05:22:47.747Z,21.43
2017-05-18T05:23:28.255Z,21.32
2017-05-18T05:24:08.752Z,21.29
2017-05-18T05:24:49.259Z,21.37
2017-05-18T05:25:29.757Z,21.32
2017-05-18T05:26:10.194Z,21.32
2017-05-18T05:28:02.736Z,21.1
2017-05-18T05:28:43.214Z,20.94
2017-05-18T05:29:23.706Z,20.87
2017-05-18T05:30:04.209Z,20.77
2017-05-18T05:30:44.705Z,20.82
2017-05-18T05:31:26.022Z,20.89
2017-05-18T05:32:07.264Z,20.8
2017-05-18T05:32:47.745Z,20.82
2017-05-18T05:33:28.210Z,20.62
2017-05-18T05:34:08.668Z,20.79
2017-05-18T05:34:49.165Z,20.66
2017-05-18T05:35:29.667Z,20.62
2017-05-18T05:36:10.287Z,20.67
2017-05-18T05:36:50.780Z,20.61
2017-05-18T05:37:31.262Z,20.77
2017-05-18T05:38:11.733Z,20.82
2017-05-18T05:38:52.947Z,20.66
2017-05-18T05:39:33.525Z,20.67
2017-05-18T05:40:14.034Z,20.59
2017-05-18T05:40:54.512Z,20.51
2017-05-18T05:41:35.043Z,20.57
2017-05-18T05:42:15.542Z,20.48
2017-05-18T05:42:56.028Z,20.55
2017-05-18T05:43:36.549Z,20.55
2017-05-18T05:44:17.067Z,20.58
2017-05-18T05:44:58.212Z,20.66
2017-05-18T05:45:38.698Z,20.64
2017-05-18T05:46:19.180Z,20.61
2017-05-18T05:46:59.675Z,20.57
2017-05-18T05:47:40.164Z,20.64
2017-05-18T05:48:20.657Z,20.61
2017-05-18T05:49:01.155Z,20.61
2017-05-18T05:49:41.641Z,20.69
2017-05-18T05:50:22.137Z,20.62
2017-05-18T05:51:02.628Z,20.66
2017-05-18T05:51:43.107Z,20.67
2017-05-18T05:52:23.614Z,20.72
2017-05-18T05:53:04.106Z,20.64
2017-05-18T05:53:44.620Z,20.59
2017-05-18T05:54:25.129Z,20.66
2017-05-18T05:55:05.614Z,20.66
2017-05-18T05:55:46.102Z,20.66
2017-05-18T05:56:26.590Z,20.91
2017-05-18T05:57:07.087Z,20.94
2017-05-18T05:57:47.584Z,21.12
2017-05-18T05:58:28.076Z,21.24
2017-05-18T05:59:08.556Z,21.28
2017-05-18T05:59:49.063Z,21.34
2017-05-18T06:00:29.559Z,21.28
2017-05-18T06:01:10.044Z,21.29
2017-05-18T06:01:51.291Z,21.24
2017-05-18T06:02:31.790Z,21.21
2017-05-18T06:03:12.273Z,21.27
2017-05-18T06:03:52.775Z,21.37
2017-05-18T06:04:33.256Z,21.27
2017-05-18T06:05:13.749Z,21.32
2017-05-18T06:05:54.237Z,21.37
2017-05-18T06:06:34.714Z,21.43
2017-05-18T06:07:15.165Z,21.34
2017-05-18T06:07:55.625Z,21.46
2017-05-18T06:08:36.102Z,21.42
2017-05-18T06:09:16.556Z,21.5
2017-05-18T06:09:57.945Z,21.58
2017-05-18T06:10:38.393Z,21.74
2017-05-18T06:11:18.849Z,21.64
2017-05-18T06:11:59.317Z,21.77
2017-05-18T06:12:39.774Z,21.75
2017-05-18T06:13:20.233Z,21.64
2017-05-18T06:14:00.678Z,21.72
2017-05-18T06:14:41.144Z,21.77
2017-05-18T06:15:22.542Z,21.69
2017-05-18T06:16:03.644Z,21.62
2017-05-18T06:16:44.104Z,21.74
2017-05-18T06:18:41.727Z,22
2017-05-18T06:19:22.231Z,22.05
2017-05-18T06:20:02.751Z,22.09
2017-05-18T06:20:43.795Z,22.17
2017-05-18T06:21:24.297Z,22.1
2017-05-18T06:22:04.796Z,22.06
2017-05-18T06:22:45.288Z,22.18
2017-05-18T06:23:25.780Z,22.22
2017-05-18T06:24:06.301Z,22.24
2017-05-18T06:24:46.795Z,22.27
2017-05-18T06:25:27.330Z,22.39
2017-05-18T06:26:07.852Z,22.21
2017-05-18T06:26:48.313Z,22.25
2017-05-18T06:27:28.816Z,22.22
2017-05-18T06:28:09.284Z,22.14
2017-05-18T06:28:49.783Z,22.35
2017-05-18T06:29:30.285Z,22.21
2017-05-18T06:30:10.786Z,22.12
2017-05-18T06:30:51.295Z,22.28
2017-05-18T06:31:31.951Z,22.31
2017-05-18T06:32:12.448Z,22.43
2017-05-18T06:32:52.927Z,22.98
2017-05-18T06:33:33.409Z,23.28
2017-05-18T06:34:13.906Z,23.5
2017-05-18T06:34:54.907Z,23.6
2017-05-18T06:35:35.449Z,24
2017-05-18T06:36:15.955Z,24.53
2017-05-18T06:36:56.486Z,24.67
2017-05-18T06:37:36.914Z,24.77
2017-05-18T06:38:17.385Z,25.02
2017-05-18T06:39:54.755Z,25.62
2017-05-18T06:40:35.216Z,26.05
2017-05-18T06:41:15.735Z,26.09
2017-05-18T06:41:57.027Z,25.61
2017-05-18T06:42:37.526Z,25.7
2017-05-18T06:43:18.032Z,25.69
2017-05-18T06:43:58.508Z,25.5
2017-05-18T06:44:38.991Z,25.33
2017-05-18T06:45:19.546Z,25.55
2017-05-18T06:46:00.036Z,25.1
2017-05-18T06:46:40.518Z,24.99
2017-05-18T06:47:21.018Z,25.23
2017-05-18T06:48:02.124Z,25.2
2017-05-18T06:48:42.615Z,25.14
2017-05-18T06:49:23.093Z,25.2
2017-05-18T06:50:03.634Z,25.32
2017-05-18T06:50:44.200Z,25.18
2017-05-18T06:51:24.752Z,25.3
2017-05-18T06:52:05.214Z,25.54
2017-05-18T06:52:45.710Z,25.98
2017-05-18T06:53:26.225Z,26.36
2017-05-18T06:54:06.738Z,26.15
2017-05-18T06:54:47.249Z,26.97
2017-05-18T06:55:27.749Z,27.4
2017-05-18T06:56:09.127Z,27.78
2017-05-18T06:56:49.639Z,27.41
2017-05-18T06:57:30.129Z,27.4
2017-05-18T06:58:10.617Z,27.59
2017-05-18T06:58:51.121Z,27.75
2017-05-18T06:59:31.625Z,27.46
2017-05-18T07:00:12.130Z,27.07
2017-05-18T07:00:52.626Z,26.85
2017-05-18T07:01:33.137Z,26.36
2017-05-18T07:02:13.644Z,26.37
2017-05-18T07:02:54.147Z,26.32
2017-05-18T07:03:34.635Z,26.35
2017-05-18T07:04:15.158Z,25.91
2017-05-18T07:04:55.665Z,25.62
2017-05-18T07:05:36.147Z,25.72
2017-05-18T07:06:16.643Z,25.82
2017-05-18T07:06:57.138Z,25.76
2017-05-18T07:07:38.536Z,26.05
2017-05-18T07:08:19.098Z,26.32
2017-05-18T07:08:59.576Z,26.51
2017-05-18T07:09:40.083Z,26.33
2017-05-18T07:10:20.635Z,26.37
2017-05-18T07:11:01.751Z,26.3
2017-05-18T07:11:42.851Z,26.47
2017-05-18T07:12:23.402Z,26.72
2017-05-18T07:13:03.933Z,26.69
2017-05-18T07:13:44.420Z,26.77
2017-05-18T07:14:24.923Z,26.62
2017-05-18T07:15:06.239Z,26.66
2017-05-18T07:15:46.739Z,26.81
2017-05-18T07:16:27.238Z,26.82
2017-05-18T07:17:07.734Z,26.91
2017-05-18T07:17:48.813Z,26.77
2017-05-18T07:18:29.289Z,26.88
2017-05-18T07:19:09.783Z,26.62
2017-05-18T07:19:50.793Z,26.81
2017-05-18T07:20:31.359Z,26.7
2017-05-18T07:21:12.932Z,26.66
2017-05-18T07:21:53.384Z,26.67
2017-05-18T07:22:33.892Z,26.77
2017-05-18T07:23:14.452Z,26.75
2017-05-18T07:23:54.969Z,26.6
2017-05-18T07:24:35.458Z,26.76
2017-05-18T07:25:15.957Z,26.52
2017-05-18T07:27:03.472Z,26.12
2017-05-18T07:27:43.960Z,26.06
2017-05-18T07:28:24.491Z,26.26
2017-05-18T07:29:05.045Z,25.97
2017-05-18T07:29:45.527Z,25.87
2017-05-18T07:30:26.017Z,25.76
2017-05-18T07:31:06.503Z,25.87
2017-05-18T07:31:47.009Z,25.75
2017-05-18T07:32:27.504Z,25.54
2017-05-18T07:33:08.934Z,25.28
2017-05-18T07:33:50.401Z,25.13
2017-05-18T07:34:30.882Z,25.14
2017-05-18T07:35:11.391Z,25.14
2017-05-18T07:35:52.431Z,25.3
2017-05-18T07:36:32.934Z,25.09
2017-05-18T07:37:14.247Z,25.25
2017-05-18T07:37:54.700Z,25.02
2017-05-18T07:38:35.187Z,24.76
2017-05-18T07:39:15.688Z,24.73
2017-05-18T07:39:56.199Z,24.65
2017-05-18T07:40:36.701Z,24.64
2017-05-18T07:41:17.237Z,24.67
2017-05-18T07:41:57.737Z,24.52
2017-05-18T07:42:38.246Z,24.27
2017-05-18T07:43:18.786Z,24.18
2017-05-18T07:43:59.310Z,24.18
2017-05-18T07:44:39.789Z,24.18
2017-05-18T07:45:20.343Z,24.16
2017-05-18T07:46:00.855Z,23.98
2017-05-18T07:48:14.644Z,24.08
2017-05-18T07:48:55.115Z,24.05
2017-05-18T07:49:35.639Z,24.13
2017-05-18T07:50:16.124Z,24.34
2017-05-18T07:50:56.600Z,24.25
2017-05-18T07:51:37.120Z,24.15
2017-05-18T07:52:17.560Z,24.22
2017-05-18T07:52:58.019Z,23.98
2017-05-18T07:53:39.284Z,23.84
2017-05-18T07:54:19.755Z,23.95
2017-05-18T07:55:00.219Z,23.94
2017-05-18T07:55:40.686Z,23.84
2017-05-18T07:56:21.135Z,24.06
2017-05-18T07:57:01.587Z,24.06
2017-05-18T07:58:59.294Z,23.83
2017-05-18T07:59:39.936Z,23.84
2017-05-18T08:00:20.397Z,23.75
2017-05-18T08:01:00.939Z,23.78
2017-05-18T08:01:41.437Z,23.48
2017-05-18T08:02:22.017Z,23.53
2017-05-18T08:03:02.469Z,23.47
2017-05-18T08:03:42.970Z,23.5
2017-05-18T08:04:23.476Z,23.47
2017-05-18T08:05:04.027Z,23.42
2017-05-18T08:05:44.553Z,23.36
2017-05-18T08:06:25.823Z,23.32
2017-05-18T08:07:06.260Z,23.27
2017-05-18T08:07:46.865Z,23.23
2017-05-18T08:08:27.334Z,23.32
2017-05-18T08:09:07.811Z,23.27
2017-05-18T08:09:48.249Z,23.27
2017-05-18T08:10:28.709Z,23.32
2017-05-18T08:11:10.055Z,23.27
2017-05-18T08:11:50.537Z,23.22
2017-05-18T08:12:31.655Z,23.27
2017-05-18T08:13:12.116Z,23.17
2017-05-18T08:13:52.651Z,23.17
2017-05-18T08:14:33.171Z,23.2
2017-05-18T08:15:13.626Z,23.25
2017-05-18T08:15:54.142Z,23.28
2017-05-18T08:16:34.585Z,23.31
2017-05-18T08:17:15.210Z,23.33
2017-05-18T08:17:55.878Z,23.31
2017-05-18T08:18:36.189Z,23.28
2017-05-18T08:19:16.759Z,23.19
2017-05-18T08:19:57.167Z,23.17
2017-05-18T08:20:37.644Z,23.22
2017-05-18T08:21:18.098Z,23.31
2017-05-18T08:21:58.600Z,23.46
2017-05-18T08:22:39.085Z,23.38
2017-05-18T08:23:20.415Z,23.36
2017-05-18T08:24:00.812Z,23.17
2017-05-18T08:24:41.369Z,23.17
2017-05-18T08:25:21.855Z,23.22
2017-05-18T08:26:03.056Z,23.19
2017-05-18T08:26:43.553Z,23.32
2017-05-18T08:27:23.972Z,23.33
2017-05-18T08:28:04.671Z,23.27
2017-05-18T08:28:45.067Z,23.19
2017-05-18T08:29:27.205Z,23.04
2017-05-18T08:30:09.405Z,23.2
2017-05-18T08:30:49.211Z,23.2
2017-05-18T08:31:29.763Z,23.25
2017-05-18T08:33:07.138Z,23.16
2017-05-18T08:33:47.622Z,23.27
2017-05-18T08:34:28.122Z,23.16
2017-05-18T08:35:08.627Z,23.02
2017-05-18T08:35:49.114Z,22.85
2017-05-18T08:36:29.600Z,22.9
2017-05-18T08:37:10.144Z,22.88
2017-05-18T08:37:50.678Z,22.85
2017-05-18T08:38:31.187Z,22.64
2017-05-18T08:39:11.681Z,22.68
2017-05-18T08:39:52.198Z,22.77
2017-05-18T08:40:32.714Z,22.68
2017-05-18T08:41:13.181Z,22.73
2017-05-18T08:41:53.678Z,22.68
2017-05-18T08:42:34.175Z,22.75
2017-05-18T08:43:15.277Z,22.76
2017-05-18T08:43:55.771Z,22.68
2017-05-18T08:44:36.296Z,22.65
2017-05-18T08:45:16.786Z,22.73
2017-05-18T08:45:57.265Z,22.7
2017-05-18T08:46:37.715Z,22.85
2017-05-18T08:47:18.162Z,22.8
2017-05-18T08:47:58.614Z,22.77
2017-05-18T08:48:39.088Z,22.77
2017-05-18T08:49:19.537Z,22.8
2017-05-18T08:49:59.997Z,22.83
2017-05-18T08:50:40.544Z,22.83
2017-05-18T08:51:21.761Z,22.73
2017-05-18T08:52:02.239Z,22.68
2017-05-18T08:52:42.696Z,22.62
2017-05-18T08:53:23.129Z,22.55
2017-05-18T08:55:16.250Z,22.43
2017-05-18T08:55:56.743Z,22.33
2017-05-18T08:56:37.822Z,22.4
2017-05-18T08:57:18.277Z,22.46
2017-05-18T08:57:58.765Z,22.47
2017-05-18T08:58:39.278Z,22.57
2017-05-18T08:59:19.749Z,22.51
2017-05-18T09:00:00.250Z,22.58
2017-05-18T09:00:40.742Z,22.58
2017-05-18T09:01:21.204Z,22.58
2017-05-18T09:02:01.693Z,22.4
2017-05-18T09:02:42.919Z,22.43
2017-05-18T09:03:23.414Z,22.24
2017-05-18T09:04:03.886Z,22.25
2017-05-18T09:04:44.377Z,22.17